.
WxDataArchive / Data Records for 2010-01-27
2010-01-26 January 2010 2010-01-28

Data Records for Wednesday, 27 January 2010

Time	Temp	Chill	HIndex	Humid	Dewpt	 Wind 	HiWind	WindDir	Rain 	Barom 
-----	----	-----	------	-----	-----	------	------	-------	-----	----- 
00:00	18.6	18.6	18.6	78	12.9	3	9	248	0.00	30.105 
00:05	18.6	18.6	18.6	78	12.9	3	7	248	0.00	30.105 
00:10	18.6	18.6	18.6	77	12.6	3	6	270	0.00	30.105 
00:15	18.6	18.6	18.6	76	12.3	3	7	270	0.00	30.109 
00:20	18.6	18.6	18.6	76	12.3	3	7	248	0.00	30.109 
00:25	18.4	12.4	18.4	75	11.8	4	7	248	0.00	30.109 
00:30	18.4	10.0	18.4	74	11.5	6	15	270	0.00	30.118 
00:35	18.4	12.4	18.4	74	11.5	4	11	248	0.00	30.118 
00:40	18.4	12.4	18.4	74	11.5	4	10	248	0.00	30.118 
00:45	18.4	12.4	18.4	74	11.5	4	13	270	0.00	30.117 
00:50	18.4	12.4	18.4	74	11.5	4	10	248	0.00	30.117 
00:55	18.4	12.4	18.4	75	11.8	4	11	248	0.00	30.117 
01:00	18.4	12.4	18.4	75	11.8	4	10	248	0.00	30.114 
01:05	18.4	18.4	18.4	76	12.1	3	6	248	0.00	30.114 
01:10	18.4	18.4	18.4	77	12.4	3	7	248	0.00	30.114 
01:15	18.4	18.4	18.4	77	12.4	3	9	248	0.00	30.104 
01:20	18.3	18.3	18.3	77	12.3	2	6	248	0.00	30.104 
01:25	18.3	18.3	18.3	77	12.3	3	7	248	0.00	30.104 
01:30	18.3	18.3	18.3	77	12.3	3	6	248	0.00	30.109 
01:35	18.3	18.3	18.3	76	12.0	1	4	248	0.00	30.109 
01:40	18.1	18.1	18.1	76	11.8	2	5	248	0.00	30.109 
01:45	18.1	18.1	18.1	76	11.8	3	7	248	0.00	30.109 
01:50	18.0	11.9	18.0	75	11.4	4	11	270	0.00	30.109 
01:55	18.0	11.9	18.0	75	11.4	4	11	248	0.00	30.109 
02:00	18.0	11.9	18.0	76	11.7	4	11	248	0.00	30.111 
02:05	18.0	18.0	18.0	76	11.7	3	7	248	0.00	30.111 
02:10	18.0	18.0	18.0	77	12.0	2	6	270	0.00	30.111 
02:15	17.8	17.8	17.8	76	11.5	2	10	248	0.00	30.117 
02:20	17.3	17.3	17.3	75	10.8	3	5	270	0.00	30.117 
02:25	17.0	17.0	17.0	75	10.5	3	4	292	0.00	30.117 
02:30	16.7	16.7	16.7	75	10.2	3	6	270	0.00	30.124 
02:35	16.7	16.7	16.7	76	10.5	3	9	248	0.00	30.124 
02:40	16.5	16.5	16.5	77	10.6	3	7	270	0.00	30.124 
02:45	16.2	16.2	16.2	76	10.0	3	8	270	0.00	30.130 
02:50	15.6	9.1	15.6	73	8.5	4	10	270	0.00	30.130 
02:55	15.2	8.7	15.2	73	8.1	4	10	248	0.00	30.130 
03:00	15.1	15.1	15.1	73	8.0	3	9	248	0.00	30.126 
03:05	15.1	8.6	15.1	73	8.0	4	9	248	0.00	30.126 
03:10	15.1	8.6	15.1	73	8.0	4	12	248	0.00	30.126 
03:15	14.9	14.9	14.9	73	7.8	3	10	248	0.00	30.127 
03:20	14.9	8.3	14.9	73	7.8	4	11	248	0.00	30.127 
03:25	14.9	14.9	14.9	73	7.8	3	7	248	0.00	30.127 
03:30	14.8	14.8	14.8	73	7.7	3	6	248	0.00	30.129 
03:35	14.8	14.8	14.8	73	7.7	3	9	248	0.00	30.129 
03:40	14.6	14.6	14.6	73	7.5	3	10	248	0.00	30.129 
03:45	14.6	14.6	14.6	73	7.5	3	11	248	0.00	30.141 
03:50	14.4	14.4	14.4	73	7.4	3	5	248	0.00	30.141 
03:55	14.4	7.7	14.4	73	7.4	4	10	270	0.00	30.141 
04:00	14.4	14.4	14.4	73	7.4	3	9	270	0.00	30.138 
04:05	14.3	14.3	14.3	73	7.3	2	10	248	0.00	30.138 
04:10	14.3	14.3	14.3	73	7.3	3	7	248	0.00	30.138 
04:15	14.1	14.1	14.1	73	7.1	2	6	248	0.00	30.132 
04:20	14.1	14.1	14.1	74	7.4	3	6	248	0.00	30.132 
04:25	14.0	14.0	14.0	74	7.3	2	3	225	0.00	30.132 
04:30	14.0	14.0	14.0	74	7.3	3	10	248	0.00	30.134 
04:35	14.0	14.0	14.0	74	7.3	2	4	248	0.00	30.134 
04:40	14.0	14.0	14.0	74	7.3	2	5	248	0.00	30.134 
04:45	14.0	14.0	14.0	74	7.3	3	6	248	0.00	30.140 
04:50	14.0	14.0	14.0	75	7.6	2	5	248	0.00	30.140 
04:55	14.0	14.0	14.0	75	7.6	3	7	248	0.00	30.140 
05:00	14.0	14.0	14.0	75	7.6	3	8	248	0.00	30.139 
05:05	14.0	14.0	14.0	75	7.6	2	7	248	0.00	30.139 
05:10	14.0	14.0	14.0	75	7.6	3	6	248	0.00	30.139 
05:15	14.0	14.0	14.0	75	7.6	3	7	248	0.00	30.145 
05:20	14.0	14.0	14.0	76	7.9	3	7	248	0.00	30.145 
05:25	14.0	14.0	14.0	76	7.9	2	5	225	0.00	30.145 
05:30	14.0	14.0	14.0	76	7.9	2	6	225	0.00	30.145 
05:35	13.8	13.8	13.8	76	7.7	2	4	270	0.00	30.145 
05:40	13.8	13.8	13.8	76	7.7	2	6	248	0.00	30.145 
05:45	13.8	13.8	13.8	76	7.7	1	5	248	0.00	30.146 
05:50	13.8	13.8	13.8	77	7.9	1	5	248	0.00	30.146 
05:55	13.6	13.6	13.6	77	7.8	2	6	248	0.00	30.146 
06:00	13.6	13.6	13.6	77	7.8	2	5	248	0.00	30.149 
06:05	13.8	13.8	13.8	77	7.9	2	5	248	0.00	30.149 
06:10	13.8	13.8	13.8	77	7.9	2	8	225	0.00	30.149 
06:15	13.8	13.8	13.8	77	7.9	2	6	248	0.00	30.161 
06:20	13.8	13.8	13.8	77	7.9	2	5	248	0.00	30.161 
06:25	13.8	13.8	13.8	78	8.2	2	4	248	0.00	30.161 
06:30	13.8	13.8	13.8	78	8.2	2	5	270	0.00	30.165 
06:35	13.8	13.8	13.8	78	8.2	2	7	248	0.00	30.165 
06:40	14.0	14.0	14.0	78	8.4	2	6	248	0.00	30.165 
06:45	14.0	14.0	14.0	78	8.4	2	6	248	0.00	30.173 
06:50	14.0	14.0	14.0	78	8.4	2	6	248	0.00	30.173 
06:55	14.0	14.0	14.0	78	8.4	3	7	248	0.00	30.173 
07:00	14.1	14.1	14.1	78	8.5	2	5	248	0.00	30.179 
07:05	14.1	14.1	14.1	78	8.5	3	6	270	0.00	30.179 
07:10	14.1	14.1	14.1	78	8.5	2	5	270	0.00	30.179 
07:15	14.1	14.1	14.1	78	8.5	3	9	225	0.00	30.177 
07:20	14.3	14.3	14.3	78	8.7	3	7	248	0.00	30.177 
07:25	14.3	14.3	14.3	78	8.7	2	5	225	0.00	30.177 
07:30	14.3	14.3	14.3	78	8.7	3	7	248	0.00	30.185 
07:35	14.3	14.3	14.3	78	8.7	3	7	248	0.00	30.185 
07:40	14.3	14.3	14.3	78	8.7	1	5	248	0.00	30.185 
07:45	14.3	14.3	14.3	78	8.7	3	7	248	0.00	30.188 
07:50	14.3	14.3	14.3	77	8.4	2	7	248	0.00	30.188 
07:55	14.3	14.3	14.3	77	8.4	2	9	292	0.00	30.188 
08:00	14.3	14.3	14.3	77	8.4	2	5	248	0.00	30.193 
08:05	14.3	14.3	14.3	77	8.4	2	7	248	0.00	30.193 
08:10	14.3	14.3	14.3	77	8.4	2	5	248	0.00	30.193 
08:15	14.3	14.3	14.3	77	8.4	3	7	248	0.00	30.198 
08:20	14.3	7.6	14.3	77	8.4	4	7	248	0.00	30.198 
08:25	14.3	14.3	14.3	77	8.4	3	7	248	0.00	30.198 
08:30	14.3	14.3	14.3	77	8.4	2	9	248	0.00	30.209 
08:35	14.3	14.3	14.3	77	8.4	3	9	270	0.00	30.209 
08:40	14.3	14.3	14.3	77	8.4	2	6	248	0.00	30.209 
08:45	14.4	14.4	14.4	77	8.5	2	6	248	0.00	30.213 
08:50	14.4	14.4	14.4	77	8.5	2	7	270	0.00	30.213 
08:55	14.4	14.4	14.4	77	8.5	3	10	292	0.00	30.213 
09:00	14.4	14.4	14.4	77	8.5	2	7	270	0.00	30.223 
09:05	14.6	14.6	14.6	77	8.7	2	5	270	0.00	30.223 
09:10	14.6	14.6	14.6	77	8.7	2	7	248	0.00	30.223 
09:15	14.6	14.6	14.6	77	8.7	3	6	248	0.00	30.220 
09:20	14.8	14.8	14.8	77	8.9	2	5	270	0.00	30.220 
09:25	14.9	14.9	14.9	76	8.7	3	9	248	0.00	30.220 
09:30	15.2	15.2	15.2	76	9.0	1	3	225	0.00	30.220 
09:35	15.6	15.6	15.6	75	9.1	3	10	248	0.00	30.220 
09:40	15.7	15.7	15.7	75	9.2	2	6	248	0.00	30.220 
09:45	15.9	15.9	15.9	74	9.1	3	8	248	0.00	30.225 
09:50	16.1	9.7	16.1	73	9.0	4	10	248	0.00	30.225 
09:55	16.2	9.8	16.2	72	8.8	4	12	248	0.00	30.225 
10:00	16.5	16.5	16.5	71	8.8	3	7	270	0.00	30.235 
10:05	16.7	16.7	16.7	70	8.6	3	6	270	0.00	30.235 
10:10	16.9	16.9	16.9	70	8.8	3	7	248	0.00	30.235 
10:15	16.9	16.9	16.9	69	8.5	3	7	248	0.00	30.235 
10:20	17.2	17.2	17.2	69	8.8	3	12	248	0.00	30.235 
10:25	17.3	17.3	17.3	69	8.9	3	7	225	0.00	30.235 
10:30	17.5	17.5	17.5	69	9.1	3	7	248	0.00	30.229 
10:35	17.5	17.5	17.5	68	8.8	3	6	248	0.00	30.229 
10:40	17.8	17.8	17.8	67	8.7	3	9	248	0.00	30.229 
10:45	18.0	11.9	18.0	67	8.9	4	7	248	0.00	30.229 
10:50	18.1	18.1	18.1	67	9.0	3	6	248	0.00	30.229 
10:55	18.3	18.3	18.3	66	8.9	3	7	248	0.00	30.229 
11:00	18.6	18.6	18.6	67	9.5	2	5	270	0.00	30.231 
11:05	18.9	18.9	18.9	66	9.4	3	10	248	0.00	30.231 
11:10	19.1	19.1	19.1	66	9.6	3	9	225	0.00	30.231 
11:15	19.5	19.5	19.5	65	9.7	3	9	248	0.00	30.240 
11:20	19.7	13.9	19.7	64	9.5	4	9	248	0.00	30.240 
11:25	19.7	12.6	19.7	62	8.8	5	15	270	0.00	30.240 
11:30	19.9	14.1	19.9	63	9.4	4	11	248	0.00	30.242 
11:35	20.2	20.2	20.2	62	9.3	3	7	270	0.00	30.242 
11:40	20.2	14.4	20.2	62	9.3	4	9	248	0.00	30.242 
11:45	20.3	20.3	20.3	62	9.4	2	6	248	0.00	30.238 
11:50	20.3	13.3	20.3	61	9.0	5	11	248	0.00	30.238 
11:55	20.5	14.8	20.5	60	8.9	4	10	248	0.00	30.238 
12:00	20.6	14.9	20.6	60	8.9	4	10	248	0.00	30.235 
12:05	20.8	20.8	20.8	60	9.1	3	9	248	0.00	30.235 
12:10	21.1	21.1	21.1	59	9.0	3	11	248	0.00	30.235 
12:15	21.3	21.3	21.3	59	9.2	3	7	248	0.00	30.228 
12:20	21.6	21.6	21.6	57	8.8	3	5	248	0.00	30.228 
12:25	21.6	16.1	21.6	55	8.0	4	11	248	0.00	30.228 
12:30	21.8	21.8	21.8	57	8.9	2	7	248	0.00	30.223 
12:35	22.2	22.2	22.2	56	8.9	3	9	248	0.00	30.223 
12:40	22.7	22.7	22.7	54	8.6	3	7	248	0.00	30.223 
12:45	23.2	23.2	23.2	54	9.1	2	5	270	0.00	30.213 
12:50	23.3	18.0	23.3	50	7.4	4	9	270	0.00	30.213 
12:55	23.5	23.5	23.5	51	8.1	3	11	270	0.00	30.213 
13:00	23.9	18.7	23.9	50	8.0	4	11	270	0.00	30.202 
13:05	24.4	19.3	24.4	50	8.5	4	11	270	0.00	30.202 
13:10	24.7	19.6	24.7	48	7.8	4	9	270	0.00	30.202 
13:15	25.0	25.0	25.0	48	8.1	3	7	248	0.00	30.202 
13:20	25.1	25.1	25.1	49	8.7	3	10	248	0.00	30.202 
13:25	25.1	20.1	25.1	48	8.2	4	11	270	0.00	30.202 
13:30	25.1	25.1	25.1	48	8.2	3	9	248	0.00	30.193 
13:35	25.3	20.3	25.3	49	8.8	4	9	248	0.00	30.193 
13:40	25.3	20.3	25.3	49	8.8	4	11	248	0.00	30.193 
13:45	25.3	25.3	25.3	50	9.3	3	9	248	0.00	30.191 
13:50	25.4	25.4	25.4	50	9.4	3	8	248	0.00	30.191 
13:55	25.4	20.5	25.4	49	8.9	4	10	248	0.00	30.191 
14:00	25.3	20.3	25.3	50	9.3	4	9	248	0.00	30.193 
14:05	25.4	25.4	25.4	51	9.8	3	11	248	0.00	30.193 
14:10	25.6	25.6	25.6	51	10.0	3	6	225	0.00	30.193 
14:15	25.6	25.6	25.6	49	9.1	3	6	270	0.00	30.189 
14:20	25.7	25.7	25.7	50	9.7	2	5	225	0.00	30.189 
14:25	25.8	20.9	25.8	47	8.4	4	13	248	0.00	30.189 
14:30	25.8	20.9	25.8	49	9.3	4	9	248	0.00	30.187 
14:35	26.0	20.0	26.0	47	8.6	5	14	248	0.00	30.187 
14:40	26.1	20.1	26.1	49	9.6	5	14	248	0.00	30.187 
14:45	25.8	19.8	25.8	51	10.2	5	10	270	0.00	30.191 
14:50	26.0	21.1	26.0	53	11.2	4	10	270	0.00	30.191 
14:55	26.0	20.0	26.0	55	12.1	5	12	248	0.00	30.191 
15:00	26.0	21.1	26.0	57	12.9	4	10	270	0.00	30.195 
15:05	25.7	20.8	25.7	59	13.4	4	14	270	0.00	30.195 
15:10	25.6	20.7	25.6	60	13.7	4	13	270	0.00	30.195 
15:15	25.6	25.6	25.6	62	14.4	3	10	248	0.00	30.195 
15:20	25.6	25.6	25.6	62	14.4	3	7	270	0.00	30.195 
15:25	25.4	25.4	25.4	63	14.6	3	10	248	0.00	30.195 
15:30	25.4	20.5	25.4	64	14.9	4	10	248	0.00	30.203 
15:35	25.1	20.1	25.1	65	15.0	4	10	248	0.00	30.203 
15:40	25.0	25.0	25.0	66	15.3	3	6	248	0.00	30.203 
15:45	25.1	25.1	25.1	67	15.7	3	10	270	0.00	30.192 
15:50	25.1	20.1	25.1	67	15.7	4	11	248	0.00	30.192 
15:55	25.1	20.1	25.1	68	16.1	4	10	270	0.00	30.192 
16:00	25.1	25.1	25.1	69	16.4	3	9	248	0.00	30.198 
16:05	25.1	20.1	25.1	70	16.7	4	12	248	0.00	30.198 
16:10	25.0	20.0	25.0	71	16.9	4	10	248	0.00	30.198 
16:15	24.8	24.8	24.8	72	17.1	3	12	248	0.00	30.194 
16:20	24.8	24.8	24.8	74	17.7	2	5	248	0.00	30.194 
16:25	25.0	25.0	25.0	74	17.9	2	5	248	0.00	30.194 
16:30	25.1	25.1	25.1	75	18.3	2	7	248	0.00	30.193 
16:35	25.1	25.1	25.1	76	18.6	3	7	248	0.00	30.193 
16:40	25.1	25.1	25.1	76	18.6	2	7	248	0.00	30.193 
16:45	25.1	25.1	25.1	77	18.9	2	6	248	0.00	30.193 
16:50	25.1	25.1	25.1	78	19.2	2	4	248	0.00	30.193 
16:55	25.1	25.1	25.1	79	19.5	2	5	225	0.00	30.193 
17:00	25.1	25.1	25.1	79	19.5	3	7	248	0.00	30.194 
17:05	25.1	25.1	25.1	80	19.8	2	5	248	0.00	30.194 
17:10	25.1	25.1	25.1	80	19.8	2	5	248	0.00	30.194 
17:15	25.3	25.3	25.3	81	20.3	2	5	248	0.00	30.191 
17:20	25.3	25.3	25.3	81	20.3	1	4	248	0.00	30.191 
17:25	25.3	25.3	25.3	81	20.3	3	7	248	0.00	30.191 
17:30	25.3	25.3	25.3	80	20.0	3	7	248	0.00	30.190 
17:35	25.4	25.4	25.4	80	20.1	1	4	248	0.00	30.190 
17:40	25.4	25.4	25.4	80	20.1	3	9	248	0.00	30.190 
17:45	25.4	25.4	25.4	80	20.1	2	6	248	0.00	30.186 
17:50	25.4	25.4	25.4	80	20.1	3	9	248	0.00	30.186 
17:55	25.4	25.4	25.4	80	20.1	2	6	248	0.00	30.186 
18:00	25.4	25.4	25.4	81	20.4	2	6	225	0.00	30.191 
18:05	25.4	25.4	25.4	81	20.4	2	5	248	0.00	30.191 
18:10	25.4	25.4	25.4	81	20.4	3	7	248	0.00	30.191 
18:15	25.4	25.4	25.4	81	20.4	2	7	248	0.00	30.191 
18:20	25.3	25.3	25.3	82	20.6	3	6	225	0.00	30.191 
18:25	25.3	25.3	25.3	82	20.6	3	7	248	0.00	30.191 
18:30	25.3	25.3	25.3	83	20.9	2	6	248	0.00	30.191 
18:35	25.1	25.1	25.1	83	20.7	3	7	248	0.00	30.191 
18:40	25.1	25.1	25.1	83	20.7	3	9	248	0.00	30.191 
18:45	25.1	20.1	25.1	83	20.7	4	12	248	0.00	30.191 
18:50	25.3	25.3	25.3	83	20.9	3	10	248	0.00	30.191 
18:55	25.3	25.3	25.3	83	20.9	3	9	248	0.00	30.191 
19:00	25.3	25.3	25.3	83	20.9	3	6	225	0.00	30.188 
19:05	25.3	25.3	25.3	83	20.9	2	6	248	0.00	30.188 
19:10	25.3	25.3	25.3	83	20.9	2	5	248	0.00	30.188 
19:15	25.4	25.4	25.4	82	20.7	3	6	248	0.00	30.185 
19:20	25.6	25.6	25.6	81	20.6	2	7	248	0.00	30.185 
19:25	25.7	25.7	25.7	81	20.7	2	6	248	0.00	30.185 
19:30	25.8	25.8	25.8	80	20.5	2	6	248	0.00	30.182 
19:35	26.0	26.0	26.0	80	20.7	2	9	248	0.00	30.182 
19:40	26.0	26.0	26.0	80	20.7	3	10	248	0.00	30.182 
19:45	26.1	26.1	26.1	80	20.8	2	8	248	0.00	30.174 
19:50	26.1	26.1	26.1	81	21.1	3	7	248	0.00	30.174 
19:55	26.1	26.1	26.1	81	21.1	2	6	248	0.00	30.174 
20:00	26.1	26.1	26.1	82	21.4	3	7	248	0.00	30.173 
20:05	26.0	26.0	26.0	83	21.6	2	7	248	0.00	30.173 
20:10	26.0	26.0	26.0	84	21.8	2	6	248	0.00	30.173 
20:15	26.0	26.0	26.0	84	21.8	2	6	248	0.00	30.168 
20:20	26.0	26.0	26.0	85	22.1	2	10	248	0.00	30.168 
20:25	26.0	26.0	26.0	85	22.1	3	10	248	0.00	30.168 
20:30	26.0	26.0	26.0	85	22.1	2	5	248	0.00	30.168 
20:35	26.1	26.1	26.1	86	22.5	1	4	248	0.00	30.168 
20:40	26.1	26.1	26.1	86	22.5	2	6	248	0.00	30.168 
20:45	26.1	26.1	26.1	86	22.5	3	9	248	0.00	30.161 
20:50	26.1	26.1	26.1	87	22.8	2	5	248	0.00	30.161 
20:55	26.0	26.0	26.0	87	22.7	3	6	248	0.00	30.161 
21:00	26.0	26.0	26.0	88	22.9	3	5	248	0.00	30.159 
21:05	26.0	26.0	26.0	88	22.9	2	5	248	0.00	30.159 
21:10	26.0	26.0	26.0	88	22.9	1	5	248	0.00	30.159 
21:15	26.0	26.0	26.0	89	23.2	2	7	248	0.00	30.153 
21:20	26.1	26.1	26.1	89	23.3	2	6	225	0.00	30.153 
21:25	26.1	26.1	26.1	89	23.3	1	4	248	0.00	30.153 
21:30	26.1	26.1	26.1	90	23.6	2	5	248	0.00	30.154 
21:35	26.3	26.3	26.3	90	23.8	3	6	270	0.00	30.154 
21:40	26.3	26.3	26.3	90	23.8	2	4	270	0.00	30.154 
21:45	26.4	26.4	26.4	90	23.9	2	5	248	0.00	30.152 
21:50	26.4	26.4	26.4	90	23.9	2	5	248	0.00	30.152 
21:55	26.6	26.6	26.6	91	24.3	2	5	225	0.00	30.152 
22:00	26.6	26.6	26.6	91	24.3	2	5	248	0.00	30.142 
22:05	26.7	26.7	26.7	91	24.4	3	7	248	0.00	30.142 
22:10	26.9	26.9	26.9	91	24.6	3	9	248	0.00	30.142 
22:15	26.9	26.9	26.9	91	24.6	1	5	248	0.00	30.135 
22:20	27.0	27.0	27.0	91	24.7	2	5	248	0.00	30.135 
22:25	27.2	27.2	27.2	91	24.9	2	9	248	0.00	30.135 
22:30	27.2	27.2	27.2	91	24.9	2	4	248	0.00	30.135 
22:35	27.3	27.3	27.3	91	25.0	3	6	225	0.00	30.135 
22:40	27.3	27.3	27.3	91	25.0	2	5	248	0.00	30.135 
22:45	27.5	27.5	27.5	91	25.2	2	6	248	0.00	30.135 
22:50	27.5	27.5	27.5	91	25.2	2	6	248	0.00	30.135 
22:55	27.5	27.5	27.5	91	25.2	2	6	248	0.00	30.135 
23:00	27.6	27.6	27.6	91	25.3	2	7	270	0.00	30.127 
23:05	27.6	27.6	27.6	91	25.3	3	7	248	0.00	30.127 
23:10	27.6	27.6	27.6	91	25.3	3	6	248	0.00	30.127 
23:15	27.6	23.0	27.6	91	25.3	4	9	248	0.00	30.119 
23:20	27.6	27.6	27.6	91	25.3	3	8	248	0.00	30.119 
23:25	27.6	27.6	27.6	91	25.3	2	5	248	0.00	30.119 
23:30	27.8	27.8	27.8	91	25.5	2	5	225	0.00	30.120 
23:35	27.8	27.8	27.8	91	25.5	2	6	248	0.00	30.120 
23:40	27.8	27.8	27.8	91	25.5	1	5	248	0.00	30.120 
23:45	27.8	27.8	27.8	91	25.5	2	10	248	0.00	30.117 
23:50	27.8	27.8	27.8	91	25.5	2	6	248	0.00	30.117 
23:55	27.8	27.8	27.8	91	25.5	3	11	248	0.00	30.117 

CoCoRaHS
IN-AL-39
A2 Web Hosting
Creative Commons License
GoDaddy
search engine by freefind advanced

loaded 2018-11-20 06:58:49 • last modified 2010-11-18 10:43:29
Privacy PolicyDisclaimer
• wx.awcolley.com is powered by PmWiki v.2002016 •
• all content (unless otherwise noted) © 2018 A W Colley